createdAt,value
2017-12-04T00:01:36.448Z,3.07
2017-12-04T00:04:04.195Z,2.97
2017-12-04T00:06:31.953Z,3.87
2017-12-04T00:08:59.459Z,3.30
2017-12-04T00:11:27.174Z,2.57
2017-12-04T00:13:54.932Z,4.60
2017-12-04T00:16:22.875Z,3.43
2017-12-04T00:18:50.372Z,3.53
2017-12-04T00:21:17.872Z,2.93
2017-12-04T00:23:45.379Z,4.00
2017-12-04T00:26:13.134Z,4.17
2017-12-04T00:28:41.032Z,3.80
2017-12-04T00:31:09.156Z,3.13
2017-12-04T00:33:36.734Z,3.23
2017-12-04T00:36:04.448Z,2.60
2017-12-04T00:38:31.959Z,3.67
2017-12-04T00:40:59.508Z,3.87
2017-12-04T00:43:27.361Z,3.17
2017-12-04T00:45:54.921Z,2.47
2017-12-04T00:48:22.535Z,2.93
2017-12-04T00:50:51.115Z,3.13
2017-12-04T00:53:18.844Z,2.70
2017-12-04T00:55:46.611Z,3.43
2017-12-04T00:58:14.111Z,2.70
2017-12-04T01:00:41.620Z,2.03
2017-12-04T01:03:09.567Z,3.23
2017-12-04T01:05:37.538Z,3.00
2017-12-04T01:08:05.095Z,2.83
2017-12-04T01:10:32.596Z,3.00
2017-12-04T01:13:00.524Z,2.50
2017-12-04T01:15:28.044Z,3.00
2017-12-04T01:17:56.167Z,3.07
2017-12-04T01:20:23.880Z,2.67
2017-12-04T01:22:51.779Z,2.33
2017-12-04T01:25:19.424Z,2.70
2017-12-04T01:27:47.324Z,2.53
2017-12-04T01:30:14.825Z,3.10
2017-12-04T01:32:43.375Z,2.57
2017-12-04T01:35:12.386Z,2.10
2017-12-04T01:37:39.898Z,3.07
2017-12-04T01:40:08.520Z,2.83
2017-12-04T01:42:36.027Z,2.40
2017-12-04T01:45:04.296Z,2.50
2017-12-04T01:47:31.815Z,2.70
2017-12-04T01:49:59.326Z,3.40
2017-12-04T01:52:26.983Z,3.40
2017-12-04T01:54:54.492Z,3.77
2017-12-04T01:57:22.393Z,2.43
2017-12-04T01:59:50.662Z,2.33
2017-12-04T02:02:18.392Z,2.53
2017-12-04T02:04:45.927Z,2.53
2017-12-04T02:07:14.279Z,3.53
2017-12-04T02:09:41.785Z,2.50
2017-12-04T02:12:09.744Z,2.63
2017-12-04T02:14:37.272Z,3.00
2017-12-04T02:17:04.771Z,2.57
2017-12-04T02:19:32.271Z,4.03
2017-12-04T02:22:00.551Z,2.53
2017-12-04T02:24:28.055Z,3.27
2017-12-04T02:26:55.560Z,2.93
2017-12-04T02:29:23.073Z,2.93
2017-12-04T02:31:50.576Z,2.87
2017-12-04T02:34:18.087Z,2.43
2017-12-04T02:36:46.008Z,2.13
2017-12-04T02:39:14.284Z,3.60
2017-12-04T02:41:41.795Z,3.00
2017-12-04T02:44:09.663Z,3.07
2017-12-04T02:46:37.551Z,2.33
2017-12-04T02:49:05.059Z,3.57
2017-12-04T02:51:32.735Z,2.13
2017-12-04T02:54:00.244Z,2.40
2017-12-04T02:56:27.757Z,1.90
2017-12-04T02:58:55.652Z,2.87
2017-12-04T03:01:23.194Z,2.57
2017-12-04T03:03:52.473Z,1.70
2017-12-04T03:06:20.239Z,4.37
2017-12-04T03:08:47.735Z,2.30
2017-12-04T03:11:16.337Z,3.53
2017-12-04T03:13:44.104Z,2.50
2017-12-04T03:16:11.611Z,2.70
2017-12-04T03:18:39.360Z,2.40
2017-12-04T03:21:07.432Z,2.40
2017-12-04T03:23:35.195Z,2.60
2017-12-04T03:26:02.699Z,1.63
2017-12-04T03:28:30.407Z,2.83
2017-12-04T03:30:58.105Z,2.37
2017-12-04T03:33:25.607Z,3.30
2017-12-04T03:35:53.523Z,2.50
2017-12-04T03:38:21.026Z,2.40
2017-12-04T03:40:48.919Z,2.20
2017-12-04T03:43:16.423Z,2.07
2017-12-04T03:45:43.930Z,2.37
2017-12-04T03:48:11.568Z,2.63
2017-12-04T03:50:39.164Z,1.90
2017-12-04T03:53:06.673Z,2.07
2017-12-04T03:55:34.288Z,1.60
2017-12-04T03:58:01.755Z,2.20
2017-12-04T04:00:29.643Z,2.00
2017-12-04T04:02:58.179Z,2.30
2017-12-04T04:05:25.939Z,2.80
2017-12-04T04:07:53.447Z,2.50
2017-12-04T04:10:21.119Z,2.23
2017-12-04T04:12:48.644Z,2.13
2017-12-04T04:15:16.380Z,2.10
2017-12-04T04:17:44.155Z,2.40
2017-12-04T04:20:12.048Z,2.30
2017-12-04T04:22:39.940Z,2.20
2017-12-04T04:25:07.447Z,2.00
2017-12-04T04:27:34.944Z,4.53
2017-12-04T04:30:02.460Z,2.10
2017-12-04T04:32:29.967Z,2.00
2017-12-04T04:34:57.526Z,4.50
2017-12-04T04:37:25.023Z,1.93
2017-12-04T04:39:52.528Z,1.53
2017-12-04T04:42:20.419Z,2.33
2017-12-04T04:44:48.939Z,2.03
2017-12-04T04:47:16.436Z,2.50
2017-12-04T04:49:45.387Z,2.60
2017-12-04T04:52:12.888Z,2.10
2017-12-04T04:54:40.799Z,2.50
2017-12-04T04:57:08.687Z,2.37
2017-12-04T04:59:36.188Z,2.10
2017-12-04T05:02:03.712Z,2.90
2017-12-04T05:04:31.215Z,2.03
2017-12-04T05:06:58.802Z,2.37
2017-12-04T05:09:26.315Z,2.40
2017-12-04T05:11:53.824Z,2.57
2017-12-04T05:14:21.483Z,2.17
2017-12-04T05:16:49.262Z,2.33
2017-12-04T05:19:16.756Z,2.20
2017-12-04T05:21:44.272Z,2.47
2017-12-04T05:24:11.768Z,2.23
2017-12-04T05:26:39.356Z,2.20
2017-12-04T05:29:07.254Z,2.93
2017-12-04T05:31:34.755Z,2.63
2017-12-04T05:34:02.679Z,3.50
2017-12-04T05:36:30.184Z,2.43
2017-12-04T05:38:58.452Z,3.00
2017-12-04T05:41:25.976Z,2.60
2017-12-04T05:43:53.474Z,1.93
2017-12-04T05:46:21.403Z,3.20
2017-12-04T05:48:48.891Z,1.83
2017-12-04T05:51:16.393Z,2.30
2017-12-04T05:53:44.159Z,2.63
2017-12-04T05:56:12.960Z,2.30
2017-12-04T05:58:40.430Z,2.70
2017-12-04T06:01:07.925Z,2.30
2017-12-04T06:03:37.055Z,2.60
2017-12-04T06:06:04.552Z,2.60
2017-12-04T06:08:32.250Z,2.80
2017-12-04T06:10:59.750Z,3.30
2017-12-04T06:13:27.255Z,2.80
2017-12-04T06:15:54.969Z,2.50
2017-12-04T06:18:23.320Z,2.40
2017-12-04T06:20:51.212Z,2.23
2017-12-04T06:23:18.819Z,2.40
2017-12-04T06:25:46.635Z,2.50
2017-12-04T06:28:14.144Z,3.00
2017-12-04T06:30:41.647Z,2.20
2017-12-04T06:33:09.228Z,2.70
2017-12-04T06:35:38.489Z,2.33
2017-12-04T06:38:05.989Z,2.40
2017-12-04T06:40:34.138Z,2.57
2017-12-04T06:43:02.204Z,2.40
2017-12-04T06:45:30.117Z,2.80
2017-12-04T06:47:58.380Z,3.13
2017-12-04T06:50:25.885Z,3.80
2017-12-04T06:52:53.404Z,3.07
2017-12-04T06:55:21.678Z,3.23
2017-12-04T06:57:50.012Z,3.30
2017-12-04T07:00:17.768Z,4.10
2017-12-04T07:02:45.279Z,2.20
2017-12-04T07:05:12.996Z,3.17
2017-12-04T07:07:40.495Z,2.23
2017-12-04T07:10:08.484Z,3.03
2017-12-04T07:12:36.702Z,2.83
2017-12-04T07:15:04.226Z,2.67
2017-12-04T07:17:32.485Z,3.40
2017-12-04T07:20:00.192Z,2.17
2017-12-04T07:22:27.685Z,2.00
2017-12-04T07:24:55.367Z,1.70
2017-12-04T07:27:22.867Z,2.70
2017-12-04T07:29:50.939Z,3.23
2017-12-04T07:32:18.440Z,3.20
2017-12-04T07:34:46.111Z,2.37
2017-12-04T07:37:13.625Z,2.77
2017-12-04T07:39:41.381Z,5.40
2017-12-04T07:42:09.144Z,2.60
2017-12-04T07:44:36.635Z,2.17
2017-12-04T07:47:05.767Z,2.67
2017-12-04T07:49:34.027Z,1.77
2017-12-04T07:52:01.704Z,1.87
2017-12-04T07:54:29.195Z,2.20
2017-12-04T07:56:57.567Z,1.90
2017-12-04T07:59:25.062Z,2.50
2017-12-04T08:01:52.785Z,1.83
2017-12-04T08:04:20.676Z,2.43
2017-12-04T08:06:48.168Z,2.40
2017-12-04T08:09:15.772Z,2.30
2017-12-04T08:11:43.544Z,2.77
2017-12-04T08:14:11.444Z,3.40
2017-12-04T08:16:39.340Z,2.50
2017-12-04T08:19:06.875Z,2.97
2017-12-04T08:21:34.766Z,2.60
2017-12-04T08:24:03.024Z,2.70
2017-12-04T08:26:31.298Z,2.70
2017-12-04T08:28:58.801Z,2.90
2017-12-04T08:31:26.299Z,2.50
2017-12-04T08:33:53.815Z,2.70
2017-12-04T08:36:21.487Z,2.50
2017-12-04T08:38:48.991Z,2.57
2017-12-04T08:41:16.492Z,2.50
2017-12-04T08:43:44.127Z,2.73
2017-12-04T08:46:11.628Z,2.60
2017-12-04T08:48:39.540Z,2.80
2017-12-04T08:51:07.090Z,2.27
2017-12-04T08:53:35.208Z,2.53
2017-12-04T08:56:02.965Z,1.87
2017-12-04T08:58:30.693Z,2.00
2017-12-04T09:00:58.196Z,1.90
2017-12-04T09:03:25.695Z,2.20
2017-12-04T09:05:53.407Z,2.60
2017-12-04T09:08:21.796Z,1.80
2017-12-04T09:10:49.303Z,2.70
2017-12-04T09:13:16.814Z,2.27
2017-12-04T09:15:44.433Z,2.47
2017-12-04T09:18:12.131Z,2.53
2017-12-04T09:20:40.407Z,2.50
2017-12-04T09:23:07.903Z,2.47
2017-12-04T09:25:36.817Z,1.83
2017-12-04T09:28:04.316Z,2.33
2017-12-04T09:30:31.812Z,3.30
2017-12-04T09:32:59.427Z,1.77
2017-12-04T09:35:27.195Z,2.53
2017-12-04T09:37:54.956Z,2.27
2017-12-04T09:40:22.864Z,3.70
2017-12-04T09:42:51.152Z,2.13
2017-12-04T09:45:19.770Z,2.67
2017-12-04T09:47:47.267Z,3.20
2017-12-04T09:50:15.172Z,2.57
2017-12-04T09:52:42.758Z,2.90
2017-12-04T09:55:10.260Z,2.23
2017-12-04T09:57:37.774Z,2.07
2017-12-04T10:00:05.275Z,3.00
2017-12-04T10:02:33.175Z,2.40
2017-12-04T10:05:00.675Z,3.07
2017-12-04T10:07:28.383Z,2.60
2017-12-04T10:09:56.084Z,3.00
2017-12-04T10:12:23.588Z,2.90
2017-12-04T10:14:51.401Z,2.67
2017-12-04T10:17:18.962Z,2.20
2017-12-04T10:19:46.594Z,1.80
2017-12-04T10:22:15.284Z,2.53
2017-12-04T10:24:43.003Z,2.10
2017-12-04T10:27:10.528Z,3.00
2017-12-04T10:29:38.039Z,1.97
2017-12-04T10:32:05.720Z,2.50
2017-12-04T10:34:33.818Z,2.70
2017-12-04T10:37:01.439Z,1.97
2017-12-04T10:39:29.908Z,2.33
2017-12-04T10:41:57.610Z,2.63
2017-12-04T10:44:25.874Z,1.90
2017-12-04T10:46:53.379Z,2.00
2017-12-04T10:49:20.884Z,1.60
2017-12-04T10:51:48.379Z,1.53
2017-12-04T10:54:15.884Z,1.90
2017-12-04T10:56:43.384Z,1.80
2017-12-04T10:59:10.899Z,2.03
2017-12-04T11:01:38.399Z,2.53
2017-12-04T11:04:05.886Z,1.47
2017-12-04T11:06:34.112Z,2.83
2017-12-04T11:09:01.602Z,2.03
2017-12-04T11:11:30.016Z,3.00
2017-12-04T11:13:57.645Z,1.80
2017-12-04T11:16:25.913Z,1.70
2017-12-04T11:18:53.562Z,1.83
2017-12-04T11:21:21.060Z,1.83
2017-12-04T11:23:48.687Z,2.50
2017-12-04T11:26:17.547Z,2.10
2017-12-04T11:28:45.063Z,1.13
2017-12-04T11:31:12.572Z,1.73
2017-12-04T11:33:40.080Z,1.80
2017-12-04T11:36:07.967Z,1.90
2017-12-04T11:38:35.488Z,1.53
2017-12-04T11:41:03.002Z,2.10
2017-12-04T11:43:32.609Z,2.37
2017-12-04T11:46:00.519Z,1.73
2017-12-04T11:48:28.016Z,1.87
2017-12-04T11:50:55.687Z,2.30
2017-12-04T11:53:23.213Z,2.73
2017-12-04T11:55:50.734Z,1.83
2017-12-04T11:58:18.703Z,2.23
2017-12-04T12:00:47.391Z,2.07
2017-12-04T12:03:14.896Z,2.30
2017-12-04T12:05:43.255Z,2.30
2017-12-04T12:08:10.763Z,1.77
2017-12-04T12:10:38.264Z,2.07
2017-12-04T12:13:06.475Z,1.60
2017-12-04T12:15:33.985Z,2.30
2017-12-04T12:18:01.490Z,2.27
2017-12-04T12:20:28.996Z,2.00
2017-12-04T12:22:56.519Z,1.77
2017-12-04T12:25:24.019Z,2.00
2017-12-04T12:27:51.744Z,1.27
2017-12-04T12:30:19.920Z,1.87
2017-12-04T12:32:47.723Z,2.10
2017-12-04T12:35:15.233Z,2.43
2017-12-04T12:37:43.359Z,2.23
2017-12-04T12:40:11.287Z,0.80
2017-12-04T12:42:38.779Z,1.60
2017-12-04T12:45:06.521Z,2.27
2017-12-04T12:47:34.424Z,1.90
2017-12-04T12:50:02.699Z,2.90
2017-12-04T12:52:30.198Z,2.07
2017-12-04T12:54:57.684Z,1.93
2017-12-04T12:57:25.644Z,1.63
2017-12-04T12:59:53.407Z,1.70
2017-12-04T13:02:21.300Z,1.40
2017-12-04T13:04:48.832Z,1.63
2017-12-04T13:07:16.720Z,1.53
2017-12-04T13:09:44.634Z,2.20
2017-12-04T13:12:12.899Z,1.53
2017-12-04T13:14:40.399Z,1.87
2017-12-04T13:17:08.063Z,1.63
2017-12-04T13:19:35.830Z,1.43
2017-12-04T13:22:04.592Z,1.77
2017-12-04T13:24:32.095Z,1.90
2017-12-04T13:27:00.601Z,1.80
2017-12-04T13:29:28.492Z,1.63
2017-12-04T13:32:19.343Z,2.23
2017-12-04T13:34:58.629Z,1.70
2017-12-04T13:37:26.141Z,1.80
2017-12-04T13:39:53.683Z,2.03
2017-12-04T13:42:21.875Z,2.07
2017-12-04T13:44:49.379Z,2.17
2017-12-04T13:47:17.372Z,2.00
2017-12-04T13:49:45.955Z,1.30
2017-12-04T13:52:13.820Z,3.03
2017-12-04T13:54:41.349Z,1.33
2017-12-04T13:57:09.512Z,1.63
2017-12-04T13:59:37.417Z,1.67
2017-12-04T14:02:05.883Z,3.43
2017-12-04T14:04:33.416Z,3.20
2017-12-04T14:07:02.068Z,1.60
2017-12-04T14:09:29.563Z,2.47
2017-12-04T14:11:57.260Z,2.63
2017-12-04T14:14:25.024Z,2.27
2017-12-04T14:16:52.521Z,2.43
2017-12-04T14:19:20.221Z,3.10
2017-12-04T14:21:48.317Z,1.90
2017-12-04T14:24:15.807Z,2.17
2017-12-04T14:26:43.508Z,2.67
2017-12-04T14:29:11.298Z,1.60
2017-12-04T14:31:38.797Z,1.80
2017-12-04T14:34:06.698Z,1.60
2017-12-04T14:36:34.251Z,2.00
2017-12-04T14:39:01.748Z,2.60
2017-12-04T14:41:30.424Z,2.43
2017-12-04T14:43:57.916Z,1.90
2017-12-04T14:46:25.631Z,2.80
2017-12-04T14:48:53.520Z,3.17
2017-12-04T14:51:21.016Z,2.60
2017-12-04T14:53:49.300Z,2.10
2017-12-04T14:56:17.336Z,2.30
2017-12-04T14:58:44.840Z,1.77
2017-12-04T15:01:12.547Z,2.27
2017-12-04T15:03:40.298Z,1.67
2017-12-04T15:06:07.804Z,1.80
2017-12-04T15:08:35.323Z,2.00
2017-12-04T15:11:02.820Z,2.33
2017-12-04T15:13:30.336Z,2.20
2017-12-04T15:15:57.885Z,2.40
2017-12-04T15:18:25.775Z,2.00
2017-12-04T15:20:53.287Z,2.03
2017-12-04T15:23:20.817Z,2.67
2017-12-04T15:25:48.940Z,1.33
2017-12-04T15:28:16.703Z,2.47
2017-12-04T15:30:44.211Z,2.50
2017-12-04T15:33:11.719Z,1.30
2017-12-04T15:35:39.224Z,1.80
2017-12-04T15:38:07.487Z,2.80
2017-12-04T15:40:35.020Z,1.80
2017-12-04T15:43:02.538Z,2.73
2017-12-04T15:45:30.805Z,2.07
2017-12-04T15:47:58.710Z,1.80
2017-12-04T15:50:26.231Z,1.97
2017-12-04T15:52:53.725Z,2.30
2017-12-04T15:55:21.795Z,2.10
2017-12-04T15:57:49.559Z,1.80
2017-12-04T16:00:17.059Z,2.17
2017-12-04T16:02:45.086Z,2.43
2017-12-04T16:05:12.587Z,2.90
2017-12-04T16:07:40.098Z,2.63
2017-12-04T16:10:07.764Z,3.33
2017-12-04T16:12:35.527Z,2.40
2017-12-04T16:15:03.036Z,1.60
2017-12-04T16:17:30.733Z,2.53
2017-12-04T16:19:59.064Z,2.37
2017-12-04T16:22:27.195Z,2.13
2017-12-04T16:24:54.706Z,3.00
2017-12-04T16:27:22.218Z,2.47
2017-12-04T16:29:49.881Z,2.77
2017-12-04T16:32:17.380Z,3.20
2017-12-04T16:34:44.883Z,3.50
2017-12-04T16:37:12.388Z,2.90
2017-12-04T16:39:40.287Z,3.10
2017-12-04T16:42:07.784Z,2.27
2017-12-04T16:44:35.300Z,2.43
2017-12-04T16:47:02.882Z,2.40
2017-12-04T16:49:30.394Z,2.20
2017-12-04T16:51:57.902Z,2.40
2017-12-04T16:54:25.408Z,2.03
2017-12-04T16:56:53.124Z,3.70
2017-12-04T16:59:20.616Z,3.33
2017-12-04T17:01:48.908Z,2.43
2017-12-04T17:04:16.716Z,2.63
2017-12-04T17:06:44.208Z,2.87
2017-12-04T17:09:11.722Z,3.43
2017-12-04T17:11:39.244Z,2.47
2017-12-04T17:14:06.740Z,4.13
2017-12-04T17:16:35.015Z,3.70
2017-12-04T17:19:02.535Z,3.40
2017-12-04T17:21:30.436Z,3.93
2017-12-04T17:23:58.522Z,2.40
2017-12-04T17:26:26.423Z,2.80
2017-12-04T17:28:54.683Z,4.60
2017-12-04T17:31:22.589Z,2.33
2017-12-04T17:33:50.187Z,2.17
2017-12-04T17:36:18.383Z,3.40
2017-12-04T17:38:46.858Z,3.63
2017-12-04T17:41:15.124Z,2.50
2017-12-04T17:43:42.780Z,2.87
2017-12-04T17:46:10.420Z,3.57
2017-12-04T17:48:37.923Z,3.90
2017-12-04T17:51:05.420Z,3.00
2017-12-04T17:53:33.221Z,2.70
2017-12-04T17:56:01.504Z,3.07
2017-12-04T17:58:29.027Z,3.77
2017-12-04T18:00:56.544Z,2.50
2017-12-04T18:03:24.042Z,3.60
2017-12-04T18:05:51.784Z,3.20
2017-12-04T18:08:19.291Z,2.47
2017-12-04T18:10:47.271Z,2.63
2017-12-04T18:13:15.180Z,2.43
2017-12-04T18:15:43.711Z,2.70
2017-12-04T18:18:11.474Z,2.10
2017-12-04T18:20:39.240Z,2.10
2017-12-04T18:23:06.761Z,2.23
2017-12-04T18:25:35.041Z,1.97
2017-12-04T18:28:02.834Z,2.03
2017-12-04T18:30:30.343Z,2.33
2017-12-04T18:32:57.871Z,3.17
2017-12-04T18:35:25.835Z,2.97
2017-12-04T18:37:53.331Z,2.80
2017-12-04T18:40:21.372Z,2.97
2017-12-04T18:42:48.889Z,2.87
2017-12-04T18:45:16.417Z,2.53
2017-12-04T18:47:44.680Z,2.57
2017-12-04T18:50:12.396Z,2.80
2017-12-04T18:52:39.898Z,2.40
2017-12-04T18:55:07.928Z,4.20
2017-12-04T18:57:35.700Z,4.60
2017-12-04T19:00:03.450Z,4.30
2017-12-04T19:02:31.133Z,2.93
2017-12-04T19:04:58.644Z,3.23
2017-12-04T19:07:26.167Z,3.10
2017-12-04T19:09:53.894Z,2.33
2017-12-04T19:12:21.402Z,3.93
2017-12-04T19:14:48.917Z,3.20
2017-12-04T19:17:16.439Z,3.67
2017-12-04T19:19:44.714Z,3.50
2017-12-04T19:22:12.401Z,3.50
2017-12-04T19:24:40.165Z,4.30
2017-12-04T19:27:07.664Z,4.17
2017-12-04T19:29:35.173Z,4.30
2017-12-04T19:32:02.762Z,3.30
2017-12-04T19:34:30.312Z,4.17
2017-12-04T19:36:57.823Z,3.10
2017-12-04T19:39:25.735Z,3.10
2017-12-04T19:41:54.207Z,3.93
2017-12-04T19:44:21.720Z,3.90
2017-12-04T19:46:49.222Z,3.43
2017-12-04T19:49:16.728Z,3.20
2017-12-04T19:51:44.628Z,2.50
2017-12-04T19:54:12.538Z,3.37
2017-12-04T19:56:40.031Z,3.73
2017-12-04T19:59:08.736Z,3.30
2017-12-04T20:01:36.236Z,4.10
2017-12-04T20:04:04.140Z,4.87
2017-12-04T20:06:31.652Z,4.00
2017-12-04T20:08:59.169Z,3.87
2017-12-04T20:11:27.075Z,3.33
2017-12-04T20:13:56.092Z,3.30
2017-12-04T20:16:23.796Z,4.67
2017-12-04T20:18:51.588Z,5.50
2017-12-04T20:21:19.668Z,4.90
2017-12-04T20:23:47.420Z,3.53
2017-12-04T20:26:14.932Z,3.80
2017-12-04T20:28:42.456Z,5.93
2017-12-04T20:31:09.973Z,3.90
2017-12-04T20:33:38.270Z,4.60
2017-12-04T20:36:05.779Z,4.33
2017-12-04T20:38:34.319Z,4.60
2017-12-04T20:41:02.595Z,4.20
2017-12-04T20:43:30.095Z,4.40
2017-12-04T20:45:58.535Z,4.57
2017-12-04T20:48:26.291Z,4.20
2017-12-04T20:50:54.042Z,4.93
2017-12-04T20:53:21.942Z,3.90
2017-12-04T20:55:49.443Z,5.30
2017-12-04T20:58:16.939Z,6.03
2017-12-04T21:00:44.461Z,3.30
2017-12-04T21:03:12.353Z,4.53
2017-12-04T21:05:39.862Z,5.30
2017-12-04T21:08:34.807Z,3.80
2017-12-04T21:11:15.108Z,5.20
2017-12-04T21:13:54.715Z,4.13
2017-12-04T21:16:44.857Z,5.00
2017-12-04T21:19:12.757Z,5.40
2017-12-04T21:21:40.259Z,4.90
2017-12-04T21:24:07.787Z,5.50
2017-12-04T21:26:35.848Z,4.37
2017-12-04T21:29:03.747Z,4.23
2017-12-04T21:31:32.031Z,4.40
2017-12-04T21:33:59.932Z,4.30
2017-12-04T21:36:27.840Z,4.13
2017-12-04T21:38:55.343Z,4.47
2017-12-04T21:41:23.636Z,4.67
2017-12-04T21:43:51.130Z,4.17
2017-12-04T21:46:19.439Z,5.47
2017-12-04T21:48:47.250Z,5.60
2017-12-04T21:51:15.532Z,4.57
2017-12-04T21:53:43.143Z,6.10
2017-12-04T21:56:11.341Z,5.10
2017-12-04T21:58:38.912Z,4.97
2017-12-04T22:01:07.051Z,5.93
2017-12-04T22:03:35.380Z,4.97
2017-12-04T22:06:03.132Z,5.00
2017-12-04T22:08:31.202Z,5.60
2017-12-04T22:10:59.104Z,5.77
2017-12-04T22:13:27.664Z,4.37
2017-12-04T22:15:55.175Z,3.90
2017-12-04T22:18:23.087Z,6.17
2017-12-04T22:20:50.587Z,5.40
2017-12-04T22:23:18.184Z,5.10
2017-12-04T22:25:45.693Z,4.53
2017-12-04T22:28:13.889Z,5.30
2017-12-04T22:30:42.680Z,4.37
2017-12-04T22:33:10.176Z,4.73
2017-12-04T22:35:38.076Z,4.37
2017-12-04T22:38:05.592Z,3.97
2017-12-04T22:40:34.667Z,3.27
2017-12-04T22:43:02.352Z,4.47
2017-12-04T22:45:30.116Z,4.63
2017-12-04T22:47:57.888Z,4.40
2017-12-04T22:50:25.383Z,4.70
2017-12-04T22:52:53.280Z,4.13
2017-12-04T22:55:21.180Z,4.20
2017-12-04T22:57:48.688Z,4.30
2017-12-04T23:00:28.363Z,4.30
2017-12-04T23:02:56.268Z,4.20
2017-12-04T23:05:24.148Z,4.07
2017-12-04T23:07:52.281Z,3.60
2017-12-04T23:10:20.353Z,3.50
2017-12-04T23:12:47.846Z,3.77
2017-12-04T23:15:16.123Z,3.33
2017-12-04T23:17:43.625Z,3.60
2017-12-04T23:20:11.899Z,5.30
2017-12-04T23:22:39.396Z,3.77
2017-12-04T23:25:07.856Z,3.73
2017-12-04T23:27:35.357Z,3.33
2017-12-04T23:30:03.623Z,3.07
2017-12-04T23:32:31.891Z,3.00
2017-12-04T23:34:59.519Z,2.73
2017-12-04T23:37:27.032Z,2.70
2017-12-04T23:39:54.932Z,3.40
2017-12-04T23:42:23.779Z,3.30
2017-12-04T23:44:51.471Z,2.97
2017-12-04T23:47:20.362Z,3.90
2017-12-04T23:49:49.272Z,3.50
2017-12-04T23:52:16.776Z,3.20
2017-12-04T23:54:44.675Z,3.03
2017-12-04T23:57:12.172Z,3.10
2017-12-04T23:59:39.776Z,2.47
